• Join FlightAware (Why Join?)
  • Login
  • US Flag 
01:51AM EDT


 

Airport Tracker/Info


-or-


 

Live Flight TrackerFlight Track Log ✈ N753C ✈ 09-Jul-2013 ✈ KDAL - KLVS

Flight Track Log - Related Links

Times and Time Zones

All times are in EDT time to prevent confusion due to time zone crossing. See the N753C flight status page for this flight to view local times or setup timezone preferences in your user account.

Time Position Orientation Groundspeed Altitude Reporting Facility
EDT Latitude Longitude Course Direction KTS MPH feet Rate Location/Type
09:32AM 32.8333 -96.8333 203° Southwest 124 143 1,100  Level Dallas / Fort Worth TRACON
09:33AM 32.8000 -96.8500 203° Southwest 139 160 2,300 1,080 Climbing Dallas / Fort Worth TRACON
09:34AM 32.8167 -96.8833 301° West 145 167 3,500 840 Climbing Dallas / Fort Worth TRACON
09:35AM 32.8333 -96.9333 292° West 167 192 4,000 240 Climbing Dallas / Fort Worth TRACON
09:36AM 32.8667 -96.9667 320° Northwest 186 214 4,000  Level Dallas / Fort Worth TRACON
09:37AM 32.8833 -97.0167 292° West 162 186 4,000  Level Dallas / Fort Worth TRACON
09:38AM 32.8833 -97.0667 270° West 167 192 4,000  Level Dallas / Fort Worth TRACON
09:39AM 32.8833 -97.1333 270° West 166 191 4,000  Level Dallas / Fort Worth TRACON
09:40AM 32.9000 -97.1833 292° West 179 206 4,000  Level Dallas / Fort Worth TRACON
09:41AM 32.9167 -97.2167 301° West 161 185 4,000  Level Dallas / Fort Worth TRACON
09:42AM 32.9333 -97.2667 292° West 169 194 4,000 300 Level Dallas / Fort Worth TRACON
09:42AM 32.9461 -97.3069 291° West 171 197 4,600 960 Climbing Fort Worth Center
09:43AM 32.9606 -97.3539 290° West 161 185 5,600 960 Climbing Fort Worth Center
09:44AM 32.9775 -97.4011 293° West 156 180 6,600 900 Climbing Fort Worth Center
09:45AM 32.9942 -97.4481 293° West 150 173 7,500 900 Climbing Fort Worth Center
09:46AM 33.0108 -97.4978 292° West 155 178 8,500 900 Climbing Fort Worth Center
09:47AM 33.0275 -97.5497 291° West 160 184 9,300 720 Climbing Fort Worth Center
09:48AM 33.0483 -97.6042 295° West 172 198 10,000 360 Climbing Fort Worth Center
09:49AM 33.0689 -97.6664 292° West 193 222 10,100  Climbing Fort Worth Center
09:50AM 33.0897 -97.7333 290° West 206 237 10,000  Descending Fort Worth Center
09:51AM 33.1103 -97.7978 291° West 212 244 10,100 600 Climbing Fort Worth Center
09:52AM 33.1289 -97.8550 291° West 197 227 11,300 1,080 Climbing Fort Worth Center
09:53AM 33.1497 -97.9097 294° West 184 212 12,300 900 Climbing Fort Worth Center
09:54AM 33.1725 -97.9669 295° West 184 212 13,200 900 Climbing Fort Worth Center
09:55AM 33.1931 -98.0192 295° West 184 212 14,100 840 Climbing Fort Worth Center
09:56AM 33.2136 -98.0764 293° West 184 212 14,900 840 Climbing Fort Worth Center
09:57AM 33.2361 -98.1336 295° West 190 219 15,800 780 Climbing Fort Worth Center
09:58AM 33.2589 -98.1911 295° West 196 226 16,500 780 Climbing Fort Worth Center
09:59AM 33.2814 -98.2508 294° West 196 226 17,400 780 Climbing Fort Worth Center
10:00AM 33.3061 -98.3108 296° West 196 226 18,100 720 Climbing Fort Worth Center
10:01AM 33.3286 -98.3706 294° West 196 226 18,900 660 Climbing Fort Worth Center
10:02AM 33.3489 -98.4306 292° West 196 226 19,500 660 Climbing Fort Worth Center
10:03AM 33.3714 -98.4856 296° West 196 226 20,300 720 Climbing Fort Worth Center
10:04AM 33.3958 -98.5506 294° West 201 231 21,000 660 Climbing Fort Worth Center
10:05AM 33.4225 -98.6206 295° West 201 231 21,700 660 Climbing Fort Worth Center
10:06AM 33.4467 -98.6881 293° West 212 244 22,400 600 Climbing Fort Worth Center
10:07AM 33.4733 -98.7508 297° West 212 244 23,000 360 Climbing Fort Worth Center
10:08AM 33.4956 -98.8158 292° West 217 250 23,200 600 Climbing Fort Worth Center
10:09AM 33.5217 -98.8911 293° West 217 250 24,200 720 Climbing Fort Worth Center
10:10AM 33.5481 -98.9561 296° West 217 250 24,700 540 Climbing Fort Worth Center
10:11AM 33.5722 -99.0214 294° West 222 255 25,300 600 Climbing Fort Worth Center
10:12AM 33.5986 -99.0917 294° West 222 255 25,900 300 Climbing Fort Worth Center
10:13AM 33.6308 -99.1722 296° West 235 270 26,000  Climbing Fort Worth Center
10:14AM 33.6589 -99.2478 294° West 247 284 26,000  Level Fort Worth Center
10:15AM 33.6892 -99.3281 294° West 253 291 26,000  Level Fort Worth Center
10:16AM 33.7172 -99.4061 293° West 253 291 26,000  Level Fort Worth Center
10:17AM 33.7469 -99.4869 294° West 258 297 26,000  Level Fort Worth Center
10:18AM 33.7772 -99.5600 297° West 258 297 26,000  Level Fort Worth Center
10:19AM 33.8028 -99.6381 292° West 253 291 26,000  Level Fort Worth Center
10:20AM 33.8328 -99.7189 294° West 253 291 26,000  Level Fort Worth Center
10:21AM 33.8625 -99.7972 295° West 253 291 26,000  Level Fort Worth Center
10:22AM 33.8903 -99.8731 294° West 253 291 26,000  Level Fort Worth Center
10:23AM 33.9178 -99.9564 292° West 253 291 26,000  Level Fort Worth Center
10:24AM 33.9475 -100.0350 295° West 253 291 26,000  Level Fort Worth Center
10:25AM 33.9731 -100.1133 291° West 253 291 26,000  Level Fort Worth Center
10:26AM 34.0028 -100.1894 295° West 253 291 26,000  Level Fort Worth Center
10:27AM 34.0322 -100.2656 295° West 253 291 26,000  Level Fort Worth Center
10:28AM 34.0597 -100.3442 293° West 253 291 26,000  Level Fort Worth Center
10:29AM 34.0892 -100.4228 294° West 253 291 26,000  Level Fort Worth Center
10:30AM 34.1164 -100.5042 292° West 253 291 26,000  Level Fort Worth Center
10:31AM 34.1478 -100.5781 297° West 253 291 26,000  Level Fort Worth Center
10:32AM 34.1731 -100.6567 291° West 253 291 26,000  Level Fort Worth Center
10:33AM 34.2000 -100.7356 292° West 253 291 26,000  Level Fort Worth Center
10:34AM 34.2272 -100.8144 293° West 253 291 26,000  Level Fort Worth Center
10:35AM 34.2564 -100.8911 295° West 253 291 26,000  Level Fort Worth Center
10:36AM 34.2833 -100.9675 293° West 253 291 26,000  Level Fort Worth Center
10:38AM 34.3269 -101.0978 292° West 254 292 26,000  Level Albuquerque Center
10:39AM 34.3547 -101.1756 293° West 254 292 26,000  Level Albuquerque Center
10:40AM 34.3817 -101.2544 293° West 253 291 26,000  Level Albuquerque Center
10:41AM 34.4136 -101.3467 293° West 250 288 26,000  Level Albuquerque Center
10:42AM 34.4414 -101.4242 294° West 251 289 26,000  Level Albuquerque Center
10:43AM 34.4672 -101.5028 292° West 250 288 26,000  Level Albuquerque Center
10:44AM 34.4950 -101.5808 293° West 251 289 26,000  Level Albuquerque Center
10:45AM 34.5217 -101.6592 292° West 251 289 26,000  Level Albuquerque Center
10:46AM 34.5483 -101.7394 292° West 254 292 26,000  Level Albuquerque Center
10:47AM 34.5747 -101.8175 292° West 251 289 26,000  Level Albuquerque Center
10:48AM 34.6069 -101.9100 293° West 249 287 26,000  Level Albuquerque Center
10:49AM 34.6322 -101.9867 292° West 246 283 26,000  Level Albuquerque Center
10:51AM 34.6594 -102.0639 293° West 247 284 26,000  Level Albuquerque Center
10:52AM 34.6844 -102.1406 292° West 245 282 26,000  Level Albuquerque Center
10:53AM 34.7103 -102.2178 292° West 245 282 26,000  Level Albuquerque Center
10:54AM 34.7369 -102.2961 293° West 248 285 26,000  Level Albuquerque Center
10:55AM 34.7686 -102.3878 293° West 246 283 26,000  Level Albuquerque Center
10:56AM 34.7950 -102.4658 292° West 248 285 26,000  Level Albuquerque Center
10:57AM 34.8206 -102.5431 292° West 247 284 26,000  Level Albuquerque Center
10:58AM 34.8467 -102.6203 292° West 247 284 26,000  Level Albuquerque Center
10:59AM 34.8742 -102.7025 292° West 245 282 26,000  Level Albuquerque Center
11:00AM 34.8997 -102.7808 292° West 246 283 26,000  Level Albuquerque Center
11:01AM 34.9258 -102.8575 293° West 244 281 26,000  Level Albuquerque Center
11:02AM 34.9514 -102.9361 292° West 247 284 26,000  Level Albuquerque Center
11:03AM 34.9781 -103.0139 293° West 247 284 26,000  Level Albuquerque Center
11:04AM 35.0069 -103.1047 291° West 245 282 26,000  Level Albuquerque Center
11:05AM 35.0331 -103.1831 292° West 246 283 26,000  Level Albuquerque Center
11:06AM 35.0597 -103.2619 292° West 249 287 26,000  Level Albuquerque Center
11:07AM 35.0856 -103.3414 292° West 250 288 26,000  Level Albuquerque Center
11:08AM 35.1114 -103.4222 291° West 251 289 26,000  Level Albuquerque Center
11:09AM 35.1381 -103.5019 292° West 252 290 26,000  Level Albuquerque Center
11:10AM 35.1644 -103.5819 292° West 251 289 26,000  Level Albuquerque Center
11:11AM 35.1939 -103.6747 291° West 250 288 26,000  Level Albuquerque Center
11:12AM 35.2200 -103.7550 292° West 251 289 26,000  Level Albuquerque Center
11:13AM 35.2453 -103.8331 292° West 247 284 26,000  Level Albuquerque Center
11:14AM 35.2708 -103.9131 291° West 249 287 26,000  Level Albuquerque Center
11:15AM 35.2958 -103.9933 291° West 251 289 26,000  Level Albuquerque Center
11:16AM 35.3228 -104.0711 293° West 249 287 26,000 -360 Level Albuquerque Center
11:17AM 35.3522 -104.1636 291° West 250 288 25,300 -1,080 Descending Albuquerque Center
11:18AM 35.3772 -104.2436 291° West 252 290 23,800 -1,560 Descending Albuquerque Center
11:19AM 35.4003 -104.3225 290° West 247 284 22,100 -1,680 Descending Albuquerque Center
11:20AM 35.4247 -104.4017 291° West 248 285 20,400 -1,680 Descending Albuquerque Center
11:22AM 35.4494 -104.4808 291° West 248 285 18,700 -1,620 Descending Albuquerque Center
11:23AM 35.4775 -104.5717 291° West 243 280 17,100 -1,500 Descending Albuquerque Center
11:24AM 35.5000 -104.6475 290° West 239 275 15,700 -1,380 Descending Albuquerque Center
11:25AM 35.5225 -104.7189 291° West 231 266 14,300 -1,380 Descending Albuquerque Center
11:26AM 35.5453 -104.7886 292° West 223 257 12,900 -1,380 Descending Albuquerque Center
11:28AM 35.5801 -104.9210 288° West  Level FlightAware Approximate
11:35AM 35.6500 -105.1333 North  Level FlightAware Approximate
11:36AM 35.6542 -105.1424 North  Level Estimated
11:37AM 35.6542 -105.1424 North  Level Estimated
11:38AM 35.6542 -105.1424 North  Level Estimated
11:39AM 35.6542 -105.1424 North  Level Estimated
11:40AM 35.6542 -105.1424 North  Level Estimated
11:41AM 35.6542 -105.1424 North  Level Estimated
11:42AM 35.6542 -105.1424 North  Level Estimated
11:43AM 35.6542 -105.1424 North  Level Estimated
11:44AM 35.6542 -105.1424 North  Level Estimated
11:45AM 35.6542 -105.1424 North  Level Estimated
11:46AM 35.6542 -105.1424 North  Level Estimated
11:47AM 35.6542 -105.1424 North  Level Estimated